createdAt,value
2023-03-06T00:00:14.809Z,96901.41
2023-03-06T00:02:42.653Z,96900.13
2023-03-06T00:05:10.687Z,96900.94
2023-03-06T00:07:40.323Z,96894.19
2023-03-06T00:10:08.449Z,96906.16
2023-03-06T00:12:36.426Z,96904.84
2023-03-06T00:15:05.763Z,96902.94
2023-03-06T00:17:33.784Z,96905.47
2023-03-06T00:20:01.812Z,96910.88
2023-03-06T00:22:31.083Z,96903.81
2023-03-06T00:25:00.352Z,96895.72
2023-03-06T00:27:28.257Z,96897.50
2023-03-06T00:29:56.934Z,96894.09
2023-03-06T00:32:25.313Z,96894.81
2023-03-06T00:34:53.842Z,96897.69
2023-03-06T00:37:22.239Z,96910.16
2023-03-06T00:39:50.360Z,96899.47
2023-03-06T00:42:20.192Z,96897.44
2023-03-06T00:44:48.401Z,96894.75
2023-03-06T00:47:17.430Z,96901.84
2023-03-06T00:49:45.822Z,96879.31
2023-03-06T00:52:14.455Z,96896.66
2023-03-06T00:54:42.540Z,96898.47
2023-03-06T00:57:10.961Z,96899.00
2023-03-06T00:59:40.201Z,96899.75
2023-03-06T01:02:08.525Z,96897.38
2023-03-06T01:04:36.739Z,96894.13
2023-03-06T01:07:04.758Z,96899.63
2023-03-06T01:09:33.131Z,96897.81
2023-03-06T01:12:01.575Z,96904.78
2023-03-06T01:14:29.509Z,96899.88
2023-03-06T01:16:58.940Z,96897.25
2023-03-06T01:19:26.860Z,96898.06
2023-03-06T01:21:54.951Z,96906.34
2023-03-06T01:24:24.167Z,96899.28
2023-03-06T01:26:52.203Z,96902.91
2023-03-06T01:29:20.219Z,96890.38
2023-03-06T01:31:48.230Z,96904.97
2023-03-06T01:34:17.586Z,96908.09
2023-03-06T01:36:45.562Z,96907.00
2023-03-06T01:39:13.498Z,96901.81
2023-03-06T01:41:41.375Z,96908.59
2023-03-06T01:44:11.378Z,96908.22
2023-03-06T01:46:42.334Z,96906.34
2023-03-06T01:49:16.735Z,96902.25
2023-03-06T01:51:48.797Z,96906.34
2023-03-06T01:54:18.765Z,96907.50
2023-03-06T01:56:48.106Z,96915.84
2023-03-06T01:59:16.174Z,96905.63
2023-03-06T02:01:44.822Z,96910.81
2023-03-06T02:04:13.229Z,96907.97
2023-03-06T02:06:43.287Z,96915.25
2023-03-06T02:09:13.589Z,96911.59
2023-03-06T02:11:44.287Z,96913.16
2023-03-06T02:14:13.813Z,96910.53
2023-03-06T02:16:42.948Z,96911.00
2023-03-06T02:19:28.782Z,96916.69
2023-03-06T02:21:56.790Z,96914.16
2023-03-06T02:24:30.697Z,96916.47
2023-03-06T02:27:01.008Z,96921.41
2023-03-06T02:29:30.163Z,96917.31
2023-03-06T02:31:58.365Z,96920.75
2023-03-06T02:34:59.385Z,96921.59
2023-03-06T02:37:28.318Z,96917.41
2023-03-06T02:40:00.738Z,96909.06
2023-03-06T02:42:30.188Z,96913.50
2023-03-06T02:45:00.449Z,96902.75
2023-03-06T02:47:28.395Z,96911.84
2023-03-06T02:49:56.502Z,96911.13
2023-03-06T02:52:24.594Z,96912.41
2023-03-06T02:54:52.574Z,96916.03
2023-03-06T02:57:20.613Z,96911.38
2023-03-06T02:59:49.956Z,96912.94
2023-03-06T03:02:17.857Z,96915.47
2023-03-06T03:04:45.941Z,96909.50
2023-03-06T03:07:13.940Z,96912.16
2023-03-06T03:09:41.860Z,96918.06
2023-03-06T03:12:10.184Z,96920.63
2023-03-06T03:14:38.175Z,96908.16
2023-03-06T03:17:07.580Z,96910.53
2023-03-06T03:19:36.074Z,96916.78
2023-03-06T03:22:04.331Z,96910.53
2023-03-06T03:24:32.342Z,96912.16
2023-03-06T03:27:00.506Z,96912.56
2023-03-06T03:29:28.460Z,96917.84
2023-03-06T03:31:56.314Z,96918.38
2023-03-06T03:34:25.704Z,96911.38
2023-03-06T03:36:53.754Z,96923.09
2023-03-06T03:39:21.723Z,96919.00
2023-03-06T03:41:49.627Z,96926.06
2023-03-06T03:44:17.578Z,96919.75
2023-03-06T03:46:45.621Z,96921.88
2023-03-06T03:49:13.627Z,96926.53
2023-03-06T03:51:43.035Z,96924.47
2023-03-06T03:54:11.357Z,96922.69
2023-03-06T03:56:40.465Z,96921.66
2023-03-06T03:59:08.553Z,96928.72
2023-03-06T04:01:39.380Z,96919.56
2023-03-06T04:04:07.532Z,96932.66
2023-03-06T04:06:35.477Z,96923.22
2023-03-06T04:09:05.548Z,96926.13
2023-03-06T04:11:33.572Z,96920.13
2023-03-06T04:14:01.648Z,96926.41
2023-03-06T04:16:29.701Z,96925.22
2023-03-06T04:18:57.663Z,96924.25
2023-03-06T04:21:25.673Z,96920.34
2023-03-06T04:23:53.580Z,96925.63
2023-03-06T04:26:22.998Z,96920.72
2023-03-06T04:28:50.906Z,96922.78
2023-03-06T04:31:18.921Z,96920.22
2023-03-06T04:33:46.801Z,96921.81
2023-03-06T04:36:18.908Z,96918.16
2023-03-06T04:38:47.104Z,96927.53
2023-03-06T04:41:15.112Z,96921.00
2023-03-06T04:43:44.658Z,96922.63
2023-03-06T04:46:12.650Z,96919.44
2023-03-06T04:48:40.758Z,96925.19
2023-03-06T04:51:08.969Z,96925.47
2023-03-06T04:53:36.991Z,96926.81
2023-03-06T04:56:05.087Z,96918.47
2023-03-06T04:58:32.977Z,96933.09
2023-03-06T05:01:02.347Z,96924.72
2023-03-06T05:03:30.497Z,96926.72
2023-03-06T05:05:58.554Z,96930.63
2023-03-06T05:08:26.548Z,96930.91
2023-03-06T05:10:56.702Z,96936.97
2023-03-06T05:13:24.793Z,96932.28
2023-03-06T05:15:53.277Z,96939.19
2023-03-06T05:18:22.840Z,96937.63
2023-03-06T05:20:51.082Z,96938.84
2023-03-06T05:23:19.076Z,96947.75
2023-03-06T05:25:46.979Z,96940.69
2023-03-06T05:28:14.971Z,96942.63
2023-03-06T05:30:42.886Z,96940.75
2023-03-06T05:33:10.938Z,96945.34
2023-03-06T05:35:40.509Z,96942.91
2023-03-06T05:38:08.534Z,96942.97
2023-03-06T05:40:36.468Z,96948.44
2023-03-06T05:43:04.553Z,96946.19
2023-03-06T05:45:32.600Z,96949.13
2023-03-06T05:48:00.438Z,96951.28
2023-03-06T05:50:28.430Z,96955.63
2023-03-06T05:52:57.933Z,96960.63
2023-03-06T05:55:26.093Z,96956.47
2023-03-06T05:57:56.328Z,96962.56
2023-03-06T06:00:24.831Z,96954.00
2023-03-06T06:02:52.976Z,96957.44
2023-03-06T06:05:21.112Z,96964.34
2023-03-06T06:07:49.319Z,96959.88
2023-03-06T06:10:18.913Z,96969.53
2023-03-06T06:12:46.959Z,96962.50
2023-03-06T06:15:15.517Z,96971.16
2023-03-06T06:17:43.461Z,96971.56
2023-03-06T06:20:12.434Z,96970.50
2023-03-06T06:22:40.373Z,96958.38
2023-03-06T06:25:08.889Z,96963.59
2023-03-06T06:27:38.373Z,96959.19
2023-03-06T06:30:07.410Z,96961.03
2023-03-06T06:32:38.666Z,96965.00
2023-03-06T06:35:07.160Z,96967.38
2023-03-06T06:37:35.044Z,96961.53
2023-03-06T06:40:04.713Z,96967.34
2023-03-06T06:42:39.106Z,96970.97
2023-03-06T06:45:10.025Z,96964.19
2023-03-06T06:47:41.222Z,96981.09
2023-03-06T06:50:11.694Z,96983.19
2023-03-06T06:52:39.640Z,96975.66
2023-03-06T06:55:08.180Z,96985.16
2023-03-06T06:57:36.234Z,96979.75
2023-03-06T07:00:05.018Z,96988.38
2023-03-06T07:02:34.724Z,96984.88
2023-03-06T07:05:05.114Z,96982.03
2023-03-06T07:07:35.277Z,96975.53
2023-03-06T07:10:03.302Z,96986.69
2023-03-06T07:12:32.952Z,96982.28
2023-03-06T07:15:00.989Z,96975.78
2023-03-06T07:17:28.826Z,96987.31
2023-03-06T07:19:58.245Z,96992.25
2023-03-06T07:22:26.501Z,96984.41
2023-03-06T07:24:54.551Z,96982.00
2023-03-06T07:27:23.895Z,96984.69
2023-03-06T07:29:52.103Z,96997.78
2023-03-06T07:32:20.960Z,96990.59
2023-03-06T07:34:49.264Z,96989.56
2023-03-06T07:37:18.827Z,97005.34
2023-03-06T07:39:47.133Z,97003.81
2023-03-06T07:42:15.473Z,96994.88
2023-03-06T07:44:43.746Z,96999.69
2023-03-06T07:47:13.191Z,96997.66
2023-03-06T07:49:41.146Z,97005.50
2023-03-06T07:52:09.332Z,96999.34
2023-03-06T07:54:38.697Z,97014.16
2023-03-06T07:57:06.677Z,97003.91
2023-03-06T07:59:34.757Z,97006.28
2023-03-06T08:02:02.880Z,97006.59
2023-03-06T08:04:30.749Z,97012.03
2023-03-06T08:07:00.428Z,97010.00
2023-03-06T08:09:28.527Z,97003.00
2023-03-06T08:11:58.281Z,97011.34
2023-03-06T08:14:27.441Z,97005.19
2023-03-06T08:16:56.426Z,97003.22
2023-03-06T08:19:24.577Z,97002.50
2023-03-06T08:21:52.565Z,97008.28
2023-03-06T08:24:20.612Z,97013.78
2023-03-06T08:26:48.647Z,97012.94
2023-03-06T08:29:18.107Z,97012.69
2023-03-06T08:31:47.160Z,97008.31
2023-03-06T08:34:16.174Z,97011.72
2023-03-06T08:36:44.456Z,97018.00
2023-03-06T08:39:13.124Z,97013.81
2023-03-06T08:41:42.206Z,97010.91
2023-03-06T08:44:10.288Z,97015.38
2023-03-06T08:46:40.141Z,97025.59
2023-03-06T08:49:08.104Z,97015.63
2023-03-06T08:51:36.217Z,97008.84
2023-03-06T08:54:04.397Z,97014.84
2023-03-06T08:56:33.425Z,97022.69
2023-03-06T08:59:02.716Z,97025.78
2023-03-06T09:01:32.241Z,97016.13
2023-03-06T09:04:02.809Z,97015.88
2023-03-06T09:06:32.319Z,97015.84
2023-03-06T09:09:00.885Z,97016.09
2023-03-06T09:11:29.105Z,97047.69
2023-03-06T09:13:57.924Z,97030.47
2023-03-06T09:16:26.042Z,96993.13
2023-03-06T09:18:54.430Z,97028.19
2023-03-06T09:21:27.386Z,97016.97
2023-03-06T09:23:58.798Z,97025.84
2023-03-06T09:26:39.545Z,97024.53
2023-03-06T09:29:12.731Z,97037.09
2023-03-06T09:31:40.780Z,97040.47
2023-03-06T09:34:08.765Z,97038.38
2023-03-06T09:36:55.043Z,97036.56
2023-03-06T09:39:24.564Z,97039.72
2023-03-06T09:41:52.813Z,97039.97
2023-03-06T09:44:22.665Z,97042.06
2023-03-06T09:47:09.370Z,97041.28
2023-03-06T09:49:46.094Z,97047.28
2023-03-06T09:52:26.343Z,97050.69
2023-03-06T09:54:55.197Z,97033.19
2023-03-06T09:57:24.180Z,97046.22
2023-03-06T09:59:53.424Z,97047.78
2023-03-06T10:02:24.252Z,97056.41
2023-03-06T10:04:55.896Z,97050.34
2023-03-06T10:07:27.595Z,97055.63
2023-03-06T10:09:58.556Z,97057.47
2023-03-06T10:12:28.662Z,97054.63
2023-03-06T10:15:04.019Z,97047.28
2023-03-06T10:17:35.456Z,97052.78
2023-03-06T10:20:11.012Z,97061.91
2023-03-06T10:22:46.211Z,97052.69
2023-03-06T10:25:22.826Z,97059.09
2023-03-06T10:27:51.987Z,97047.38
2023-03-06T10:30:27.350Z,97050.38
2023-03-06T10:32:58.829Z,97040.38
2023-03-06T10:35:30.800Z,97041.44
2023-03-06T10:38:06.566Z,97043.56
2023-03-06T10:40:41.684Z,97058.78
2023-03-06T10:43:12.494Z,97061.16
2023-03-06T10:45:50.418Z,97058.28
2023-03-06T10:48:23.207Z,97061.13
2023-03-06T10:50:51.989Z,97051.44
2023-03-06T10:53:26.392Z,97058.25
2023-03-06T10:55:58.487Z,97056.09
2023-03-06T10:58:28.336Z,97062.06
2023-03-06T11:01:08.076Z,97068.38
2023-03-06T11:03:36.701Z,97068.56
2023-03-06T11:06:07.728Z,97063.31
2023-03-06T11:08:37.487Z,97072.13
2023-03-06T11:11:06.809Z,97059.22
2023-03-06T11:13:36.440Z,97046.16
2023-03-06T11:16:06.672Z,97067.13
2023-03-06T11:18:39.271Z,97061.59
2023-03-06T11:21:09.281Z,97070.41
2023-03-06T11:23:40.615Z,97073.72
2023-03-06T11:26:20.331Z,97067.84
2023-03-06T11:28:49.761Z,97080.66
2023-03-06T11:31:19.998Z,97071.28
2023-03-06T11:33:51.320Z,97072.97
2023-03-06T11:36:24.253Z,97082.38
2023-03-06T11:38:54.244Z,97080.25
2023-03-06T11:41:27.076Z,97083.31
2023-03-06T11:43:59.316Z,97079.16
2023-03-06T11:46:29.653Z,97076.34
2023-03-06T11:49:01.124Z,97084.63
2023-03-06T11:51:31.670Z,97062.19
2023-03-06T11:54:01.478Z,97080.16
2023-03-06T11:56:36.938Z,97078.66
2023-03-06T11:59:10.846Z,97080.50
2023-03-06T12:01:42.622Z,97092.28
2023-03-06T12:04:27.517Z,97085.47
2023-03-06T12:07:00.612Z,97099.06
2023-03-06T12:09:36.348Z,97118.28
2023-03-06T12:12:20.992Z,97108.28
2023-03-06T12:14:56.641Z,97112.47
2023-03-06T12:17:31.637Z,97124.22
2023-03-06T12:20:25.371Z,97115.34
2023-03-06T12:23:02.362Z,97119.38
2023-03-06T12:25:45.187Z,97110.00
2023-03-06T12:28:27.840Z,97110.78
2023-03-06T12:31:06.798Z,97108.91
2023-03-06T12:33:41.389Z,97101.09
2023-03-06T12:36:33.345Z,97105.63
2023-03-06T12:39:06.474Z,97115.00
2023-03-06T12:41:41.329Z,97107.97
2023-03-06T12:44:24.075Z,97109.97
2023-03-06T12:46:55.580Z,97119.25
2023-03-06T12:49:32.059Z,97141.22
2023-03-06T12:52:01.756Z,97129.78
2023-03-06T12:54:30.810Z,97128.81
2023-03-06T12:57:01.633Z,97117.16
2023-03-06T12:59:37.100Z,97106.56
2023-03-06T13:02:19.237Z,97142.88
2023-03-06T13:04:58.617Z,97123.25
2023-03-06T13:07:32.166Z,97117.34
2023-03-06T13:10:07.014Z,97114.25
2023-03-06T13:12:55.787Z,97113.50
2023-03-06T13:15:33.891Z,97114.28
2023-03-06T13:18:02.240Z,97123.44
2023-03-06T13:20:39.281Z,97128.53
2023-03-06T13:23:25.972Z,97126.97
2023-03-06T13:25:54.130Z,97107.09
2023-03-06T13:28:26.758Z,97124.00
2023-03-06T13:30:56.216Z,97129.88
2023-03-06T13:33:42.753Z,97133.59
2023-03-06T13:36:21.293Z,97134.38
2023-03-06T13:38:57.012Z,97127.03
2023-03-06T13:41:35.928Z,97152.78
2023-03-06T13:44:07.726Z,97151.59
2023-03-06T13:46:38.285Z,97140.19
2023-03-06T13:49:11.957Z,97139.31
2023-03-06T13:51:41.494Z,97138.38
2023-03-06T13:54:24.622Z,97139.13
2023-03-06T13:56:58.503Z,97149.06
2023-03-06T13:59:47.184Z,97139.84
2023-03-06T14:02:34.713Z,97149.72
2023-03-06T14:05:03.920Z,97146.41
2023-03-06T14:07:33.685Z,97152.66
2023-03-06T14:10:14.886Z,97146.84
2023-03-06T14:12:44.773Z,97150.28
2023-03-06T14:15:16.360Z,97142.97
2023-03-06T14:17:54.225Z,97150.97
2023-03-06T14:20:22.758Z,97164.78
2023-03-06T14:22:50.808Z,97151.00
2023-03-06T14:25:21.934Z,97164.84
2023-03-06T14:27:51.572Z,97158.72
2023-03-06T14:30:24.225Z,97162.84
2023-03-06T14:32:55.826Z,97162.56
2023-03-06T14:35:28.211Z,97168.63
2023-03-06T14:37:58.151Z,97170.22
2023-03-06T14:40:29.054Z,97168.59
2023-03-06T14:43:20.619Z,97168.31
2023-03-06T14:45:52.934Z,97168.00
2023-03-06T14:48:22.338Z,97182.28
2023-03-06T14:50:51.656Z,97184.25
2023-03-06T14:53:22.387Z,97184.38
2023-03-06T14:55:51.861Z,97191.31
2023-03-06T14:58:21.487Z,97191.56
2023-03-06T15:00:52.069Z,97203.53
2023-03-06T15:03:22.183Z,97199.38
2023-03-06T15:05:52.298Z,97202.13
2023-03-06T15:08:23.426Z,97200.72
2023-03-06T15:10:56.453Z,97197.81
2023-03-06T15:13:25.738Z,97204.53
2023-03-06T15:15:58.078Z,97215.78
2023-03-06T15:18:35.578Z,97205.63
2023-03-06T15:21:09.938Z,97214.69
2023-03-06T15:23:39.112Z,97215.41
2023-03-06T15:26:21.288Z,97212.50
2023-03-06T15:29:03.366Z,97220.38
2023-03-06T15:31:37.323Z,97219.28
2023-03-06T15:34:14.600Z,97222.75
2023-03-06T15:36:44.715Z,97233.00
2023-03-06T15:39:29.255Z,97229.03
2023-03-06T15:41:58.363Z,97226.38
2023-03-06T15:44:26.704Z,97236.84
2023-03-06T15:47:07.798Z,97235.66
2023-03-06T15:49:37.720Z,97253.81
2023-03-06T15:52:07.420Z,97254.03
2023-03-06T15:54:35.690Z,97251.84
2023-03-06T15:57:04.854Z,97249.56
2023-03-06T15:59:34.534Z,97249.50
2023-03-06T16:02:04.527Z,97261.06
2023-03-06T16:04:32.542Z,97271.47
2023-03-06T16:07:00.486Z,97259.50
2023-03-06T16:09:29.895Z,97269.25
2023-03-06T16:11:57.885Z,97271.84
2023-03-06T16:14:25.984Z,97276.84
2023-03-06T16:16:54.634Z,97280.13
2023-03-06T16:19:26.520Z,97286.91
2023-03-06T16:21:55.429Z,97284.38
2023-03-06T16:24:23.605Z,97295.53
2023-03-06T16:26:55.116Z,97298.03
2023-03-06T16:29:24.037Z,97290.50
2023-03-06T16:31:52.155Z,97301.66
2023-03-06T16:34:20.157Z,97310.75
2023-03-06T16:36:49.036Z,97301.66
2023-03-06T16:39:17.634Z,97303.00
2023-03-06T16:41:46.713Z,97304.72
2023-03-06T16:44:16.144Z,97311.97
2023-03-06T16:46:46.089Z,97311.72
2023-03-06T16:49:17.111Z,97311.06
2023-03-06T16:51:45.877Z,97320.22
2023-03-06T16:54:14.136Z,97332.06
2023-03-06T16:56:42.345Z,97347.91
2023-03-06T16:59:10.451Z,97315.13
2023-03-06T17:01:41.088Z,97322.81
2023-03-06T17:04:09.196Z,97314.13
2023-03-06T17:06:37.447Z,97325.97
2023-03-06T17:09:05.408Z,97324.13
2023-03-06T17:11:33.655Z,97328.44
2023-03-06T17:14:02.647Z,97325.25
2023-03-06T17:16:30.703Z,97328.44
2023-03-06T17:19:02.222Z,97337.81
2023-03-06T17:21:30.522Z,97341.19
2023-03-06T17:23:58.561Z,97335.78
2023-03-06T17:26:26.671Z,97341.06
2023-03-06T17:28:56.108Z,97339.28
2023-03-06T17:31:25.564Z,97352.97
2023-03-06T17:33:57.108Z,97351.41
2023-03-06T17:36:26.793Z,97354.13
2023-03-06T17:38:56.184Z,97363.75
2023-03-06T17:41:25.172Z,97364.53
2023-03-06T17:43:53.317Z,97361.81
2023-03-06T17:46:21.379Z,97362.28
2023-03-06T17:48:49.314Z,97363.94
2023-03-06T17:51:17.495Z,97366.66
2023-03-06T17:53:46.850Z,97368.81
2023-03-06T17:56:15.276Z,97376.50
2023-03-06T17:58:43.571Z,97380.56
2023-03-06T18:01:12.504Z,97374.34
2023-03-06T18:03:40.919Z,97341.03
2023-03-06T18:06:09.694Z,97378.19
2023-03-06T18:08:38.012Z,97374.94
2023-03-06T18:11:07.940Z,97392.88
2023-03-06T18:13:36.737Z,97376.59
2023-03-06T18:16:05.157Z,97383.94
2023-03-06T18:18:33.294Z,97383.47
2023-03-06T18:21:04.275Z,97381.91
2023-03-06T18:23:32.450Z,97385.31
2023-03-06T18:26:11.657Z,97386.63
2023-03-06T18:28:40.996Z,97378.16
2023-03-06T18:31:15.317Z,97391.13
2023-03-06T18:33:43.363Z,97388.97
2023-03-06T18:36:11.307Z,97384.22
2023-03-06T18:38:40.218Z,97389.41
2023-03-06T18:41:09.838Z,97381.81
2023-03-06T18:43:38.472Z,97393.78
2023-03-06T18:46:07.482Z,97386.00
2023-03-06T18:48:35.794Z,97387.00
2023-03-06T18:51:07.975Z,97402.91
2023-03-06T18:53:36.471Z,97397.25
2023-03-06T18:56:04.911Z,97391.28
2023-03-06T18:58:34.744Z,97368.63
2023-03-06T19:01:06.755Z,97400.16
2023-03-06T19:03:34.786Z,97399.44
2023-03-06T19:06:04.849Z,97403.63
2023-03-06T19:08:32.907Z,97405.44
2023-03-06T19:11:02.891Z,97400.25
2023-03-06T19:13:30.967Z,97406.22
2023-03-06T19:16:00.558Z,97395.75
2023-03-06T19:18:29.596Z,97416.16
2023-03-06T19:21:07.808Z,97406.13
2023-03-06T19:23:35.987Z,97414.72
2023-03-06T19:26:06.375Z,97408.38
2023-03-06T19:28:35.129Z,97414.56
2023-03-06T19:31:10.098Z,97409.28
2023-03-06T19:33:38.622Z,97411.91
2023-03-06T19:36:07.315Z,97423.09
2023-03-06T19:38:35.512Z,97418.00
2023-03-06T19:41:03.757Z,97421.69
2023-03-06T19:43:31.709Z,97424.66
2023-03-06T19:46:00.857Z,97430.78
2023-03-06T19:48:30.622Z,97417.13
2023-03-06T19:50:58.550Z,97425.84
2023-03-06T19:53:28.360Z,97418.97
2023-03-06T19:56:03.291Z,97424.16
2023-03-06T19:58:31.185Z,97423.72
2023-03-06T20:01:04.026Z,97412.53
2023-03-06T20:03:33.465Z,97423.16
2023-03-06T20:06:01.666Z,97420.78
2023-03-06T20:08:29.845Z,97427.47
2023-03-06T20:10:57.805Z,97445.66
2023-03-06T20:13:25.954Z,97430.72
2023-03-06T20:15:54.101Z,97433.56
2023-03-06T20:18:22.092Z,97438.88
2023-03-06T20:20:59.841Z,97435.59
2023-03-06T20:23:28.223Z,97424.31
2023-03-06T20:25:56.550Z,97436.03
2023-03-06T20:28:24.587Z,97423.41
2023-03-06T20:30:52.627Z,97423.97
2023-03-06T20:33:22.332Z,97425.13
2023-03-06T20:35:50.279Z,97421.50
2023-03-06T20:38:19.755Z,97431.00
2023-03-06T20:40:48.065Z,97415.69
2023-03-06T20:43:16.215Z,97419.06
2023-03-06T20:45:44.290Z,97430.66
2023-03-06T20:48:12.345Z,97429.88
2023-03-06T20:50:40.294Z,97432.38
2023-03-06T20:53:08.364Z,97422.91
2023-03-06T20:55:38.702Z,97438.47
2023-03-06T20:58:06.714Z,97423.47
2023-03-06T21:00:34.689Z,97429.78
2023-03-06T21:03:02.754Z,97428.19
2023-03-06T21:05:30.679Z,97425.16
2023-03-06T21:07:58.652Z,97423.94
2023-03-06T21:10:26.629Z,97423.03
2023-03-06T21:12:55.979Z,97437.94
2023-03-06T21:15:27.258Z,97423.03
2023-03-06T21:17:55.182Z,97428.56
2023-03-06T21:20:23.232Z,97432.63
2023-03-06T21:22:52.185Z,97435.34
2023-03-06T21:25:20.124Z,97431.72
2023-03-06T21:27:48.307Z,97430.50
2023-03-06T21:30:17.818Z,97426.09
2023-03-06T21:32:45.748Z,97437.84
2023-03-06T21:35:14.143Z,97426.63
2023-03-06T21:37:42.119Z,97437.84
2023-03-06T21:40:10.965Z,97430.03
2023-03-06T21:42:39.013Z,97436.25
2023-03-06T21:45:08.570Z,97439.72
2023-03-06T21:47:41.106Z,97444.81
2023-03-06T21:50:12.958Z,97445.50
2023-03-06T21:52:40.844Z,97449.78
2023-03-06T21:55:09.678Z,97447.50
2023-03-06T21:57:37.691Z,97438.28
2023-03-06T22:00:08.614Z,97447.75
2023-03-06T22:02:38.352Z,97447.06
2023-03-06T22:05:07.161Z,97448.00
2023-03-06T22:07:36.668Z,97443.13
2023-03-06T22:10:04.869Z,97449.47
2023-03-06T22:12:34.467Z,97446.44
2023-03-06T22:15:02.515Z,97444.41
2023-03-06T22:17:31.666Z,97452.41
2023-03-06T22:20:01.042Z,97449.59
2023-03-06T22:22:29.002Z,97450.94
2023-03-06T22:24:57.020Z,97442.47
2023-03-06T22:27:24.904Z,97438.06
2023-03-06T22:29:53.396Z,97439.66
2023-03-06T22:32:23.196Z,97436.81
2023-03-06T22:34:52.428Z,97439.78
2023-03-06T22:37:21.754Z,97436.81
2023-03-06T22:39:49.647Z,97434.91
2023-03-06T22:42:17.677Z,97436.91
2023-03-06T22:44:45.595Z,97437.59
2023-03-06T22:47:13.603Z,97430.63
2023-03-06T22:49:41.694Z,97437.94
2023-03-06T22:52:10.037Z,97440.53
2023-03-06T22:54:39.369Z,97441.66
2023-03-06T22:57:07.244Z,97441.53
2023-03-06T22:59:35.239Z,97442.31
2023-03-06T23:02:04.130Z,97438.72
2023-03-06T23:04:32.164Z,97435.78
2023-03-06T23:07:00.125Z,97428.09
2023-03-06T23:09:28.033Z,97431.59
2023-03-06T23:11:57.281Z,97427.84
2023-03-06T23:14:25.488Z,97426.16
2023-03-06T23:16:53.685Z,97429.78
2023-03-06T23:19:21.684Z,97426.03
2023-03-06T23:21:49.944Z,97435.97
2023-03-06T23:24:18.293Z,97425.47
2023-03-06T23:26:46.213Z,97419.06
2023-03-06T23:29:15.726Z,97430.78
2023-03-06T23:31:43.847Z,97425.59
2023-03-06T23:34:12.063Z,97425.25
2023-03-06T23:36:40.075Z,97426.16
2023-03-06T23:39:08.014Z,97427.19
2023-03-06T23:41:36.274Z,97422.31
2023-03-06T23:44:05.224Z,97430.91
2023-03-06T23:46:34.836Z,97426.38
2023-03-06T23:49:02.937Z,97432.03
2023-03-06T23:51:30.968Z,97429.44
2023-03-06T23:53:59.828Z,97428.41
2023-03-06T23:56:28.617Z,97432.03
2023-03-06T23:58:56.934Z,97440.72
